createdAt,value
2023-03-22T00:00:07.294Z,12.54
2023-03-22T00:03:00.419Z,12.41
2023-03-22T00:05:33.437Z,12.45
2023-03-22T00:08:07.372Z,12.50
2023-03-22T00:10:41.644Z,12.55
2023-03-22T00:13:14.551Z,12.52
2023-03-22T00:15:49.329Z,12.49
2023-03-22T00:18:21.884Z,12.54
2023-03-22T00:20:56.258Z,12.59
2023-03-22T00:23:29.910Z,12.55
2023-03-22T00:26:03.081Z,12.61
2023-03-22T00:28:35.893Z,12.39
2023-03-22T00:31:09.478Z,12.36
2023-03-22T00:33:42.349Z,12.43
2023-03-22T00:36:16.437Z,12.48
2023-03-22T00:38:49.584Z,12.43
2023-03-22T00:41:24.505Z,12.42
2023-03-22T00:43:57.020Z,12.53
2023-03-22T00:46:30.286Z,12.51
2023-03-22T00:49:03.319Z,12.52
2023-03-22T00:51:36.056Z,12.51
2023-03-22T00:54:09.058Z,12.47
2023-03-22T00:56:45.875Z,12.36
2023-03-22T00:59:20.542Z,12.40
2023-03-22T01:01:53.540Z,12.48
2023-03-22T01:04:27.072Z,12.57
2023-03-22T01:07:02.071Z,12.56
2023-03-22T01:09:35.446Z,12.55
2023-03-22T01:12:08.483Z,12.59
2023-03-22T01:14:41.869Z,12.52
2023-03-22T01:17:16.382Z,12.58
2023-03-22T01:19:49.016Z,12.62
2023-03-22T01:22:21.454Z,12.56
2023-03-22T01:24:54.692Z,12.58
2023-03-22T01:27:27.924Z,12.60
2023-03-22T01:30:00.584Z,12.54
2023-03-22T01:32:33.612Z,12.53
2023-03-22T01:35:06.977Z,12.49
2023-03-22T01:37:40.685Z,12.53
2023-03-22T01:40:15.971Z,12.48
2023-03-22T01:42:49.160Z,12.50
2023-03-22T01:45:41.475Z,12.41
2023-03-22T01:48:20.937Z,12.35
2023-03-22T01:51:03.441Z,12.34
2023-03-22T01:53:42.234Z,12.37
2023-03-22T01:56:16.006Z,12.47
2023-03-22T01:58:50.032Z,12.37
2023-03-22T02:01:25.198Z,12.43
2023-03-22T02:03:59.815Z,12.44
2023-03-22T02:06:32.605Z,12.30
2023-03-22T02:09:13.881Z,12.37
2023-03-22T02:11:53.423Z,12.19
2023-03-22T02:14:59.846Z,12.25
2023-03-22T02:18:30.194Z,12.43
2023-03-22T02:21:33.068Z,12.33
2023-03-22T02:24:36.396Z,12.30
2023-03-22T02:27:28.829Z,12.28
2023-03-22T02:30:26.564Z,12.29
2023-03-22T02:33:14.068Z,12.36
2023-03-22T02:35:56.761Z,12.36
2023-03-22T02:38:57.821Z,12.29
2023-03-22T02:41:47.792Z,12.23
2023-03-22T02:44:29.021Z,12.15
2023-03-22T02:47:06.548Z,12.16
2023-03-22T02:49:42.549Z,12.19
2023-03-22T02:52:20.575Z,12.13
2023-03-22T02:55:00.713Z,12.16
2023-03-22T02:57:39.114Z,12.33
2023-03-22T03:00:15.921Z,12.14
2023-03-22T03:02:51.947Z,12.23
2023-03-22T03:05:26.105Z,12.29
2023-03-22T03:08:03.446Z,12.35
2023-03-22T03:10:38.613Z,12.37
2023-03-22T03:13:12.572Z,12.12
2023-03-22T03:15:50.068Z,12.21
2023-03-22T03:18:45.641Z,12.12
2023-03-22T03:21:30.271Z,12.14
2023-03-22T03:24:23.053Z,12.03
2023-03-22T03:27:02.328Z,11.97
2023-03-22T03:29:43.377Z,11.96
2023-03-22T03:32:26.424Z,12.10
2023-03-22T03:35:05.531Z,12.08
2023-03-22T03:37:45.066Z,12.07
2023-03-22T03:40:21.433Z,12.12
2023-03-22T03:42:57.588Z,12.02
2023-03-22T03:45:31.058Z,12.13
2023-03-22T03:48:07.424Z,12.09
2023-03-22T03:50:41.255Z,12.09
2023-03-22T03:53:15.790Z,12.11
2023-03-22T03:55:48.759Z,12.11
2023-03-22T03:58:22.166Z,12.10
2023-03-22T04:00:55.668Z,12.10
2023-03-22T04:03:31.724Z,12.19
2023-03-22T04:06:34.783Z,12.19
2023-03-22T04:09:12.122Z,12.19
2023-03-22T04:11:47.971Z,12.08
2023-03-22T04:14:20.990Z,12.19
2023-03-22T04:16:55.364Z,12.19
2023-03-22T04:19:30.992Z,12.23
2023-03-22T04:22:04.098Z,12.24
2023-03-22T04:24:37.961Z,12.20
2023-03-22T04:27:10.999Z,12.18
2023-03-22T04:29:54.903Z,12.14
2023-03-22T04:32:48.097Z,12.22
2023-03-22T04:35:21.581Z,12.24
2023-03-22T04:37:55.073Z,12.16
2023-03-22T04:40:31.693Z,12.24
2023-03-22T04:43:13.739Z,12.26
2023-03-22T04:45:58.434Z,12.23
2023-03-22T04:48:37.945Z,12.32
2023-03-22T04:51:13.144Z,12.27
2023-03-22T04:53:51.694Z,12.28
2023-03-22T04:56:25.959Z,12.29
2023-03-22T04:58:59.267Z,12.13
2023-03-22T05:01:31.840Z,12.12
2023-03-22T05:04:14.288Z,12.14
2023-03-22T05:06:49.656Z,12.21
2023-03-22T05:09:34.152Z,12.24
2023-03-22T05:12:08.546Z,12.17
2023-03-22T05:15:06.737Z,12.20
2023-03-22T05:17:42.325Z,12.20
2023-03-22T05:20:16.465Z,12.17
2023-03-22T05:22:57.274Z,12.02
2023-03-22T05:25:32.989Z,12.10
2023-03-22T05:28:06.424Z,12.11
2023-03-22T05:30:53.848Z,12.12
2023-03-22T05:33:34.845Z,12.08
2023-03-22T05:36:08.941Z,12.03
2023-03-22T05:38:47.804Z,12.02
2023-03-22T05:41:20.993Z,11.93
2023-03-22T05:43:54.181Z,11.87
2023-03-22T05:46:27.024Z,11.84
2023-03-22T05:49:28.944Z,11.97
2023-03-22T05:52:04.444Z,12.06
2023-03-22T05:54:49.914Z,12.02
2023-03-22T05:57:22.758Z,12.09
2023-03-22T05:59:55.853Z,12.05
2023-03-22T06:02:32.719Z,12.22
2023-03-22T06:05:06.138Z,12.33
2023-03-22T06:07:39.762Z,12.40
2023-03-22T06:10:24.479Z,12.37
2023-03-22T06:12:58.130Z,12.41
2023-03-22T06:15:33.972Z,12.39
2023-03-22T06:18:16.011Z,12.43
2023-03-22T06:20:50.802Z,12.33
2023-03-22T06:23:27.165Z,12.56
2023-03-22T06:26:00.434Z,12.53
2023-03-22T06:28:33.430Z,12.63
2023-03-22T06:31:12.107Z,12.73
2023-03-22T06:34:04.892Z,12.73
2023-03-22T06:36:45.549Z,12.70
2023-03-22T06:39:21.676Z,12.61
2023-03-22T06:41:55.472Z,12.66
2023-03-22T06:44:29.684Z,12.73
2023-03-22T06:47:15.599Z,12.61
2023-03-22T06:50:10.281Z,12.64
2023-03-22T06:53:08.996Z,12.70
2023-03-22T06:56:02.125Z,12.66
2023-03-22T06:58:35.180Z,12.51
2023-03-22T07:01:08.124Z,12.57
2023-03-22T07:03:42.893Z,12.60
2023-03-22T07:06:19.587Z,12.65
2023-03-22T07:08:54.389Z,12.65
2023-03-22T07:11:31.705Z,12.75
2023-03-22T07:14:06.438Z,12.77
2023-03-22T07:17:05.602Z,12.86
2023-03-22T07:19:39.275Z,12.83
2023-03-22T07:22:13.901Z,12.70
2023-03-22T07:24:57.015Z,12.74
2023-03-22T07:27:31.100Z,12.85
2023-03-22T07:30:05.190Z,12.74
2023-03-22T07:32:42.406Z,12.91
2023-03-22T07:35:20.003Z,12.97
2023-03-22T07:37:53.249Z,13.01
2023-03-22T07:40:33.975Z,13.16
2023-03-22T07:43:06.826Z,13.16
2023-03-22T07:45:44.288Z,13.22
2023-03-22T07:48:36.642Z,13.09
2023-03-22T07:51:35.084Z,13.25
2023-03-22T07:54:09.877Z,13.37
2023-03-22T07:56:45.164Z,13.39
2023-03-22T07:59:18.075Z,13.41
2023-03-22T08:01:51.695Z,13.41
2023-03-22T08:04:40.800Z,13.40
2023-03-22T08:07:19.889Z,13.39
2023-03-22T08:09:53.919Z,13.37
2023-03-22T08:12:28.166Z,13.53
2023-03-22T08:15:09.236Z,13.33
2023-03-22T08:17:40.900Z,13.29
2023-03-22T08:20:18.821Z,13.33
2023-03-22T08:22:56.605Z,13.30
2023-03-22T08:25:33.561Z,13.28
2023-03-22T08:28:13.390Z,13.42
2023-03-22T08:30:46.501Z,13.58
2023-03-22T08:33:21.416Z,13.75
2023-03-22T08:35:54.521Z,13.71
2023-03-22T08:38:27.221Z,13.66
2023-03-22T08:40:59.751Z,13.58
2023-03-22T08:43:32.564Z,13.63
2023-03-22T08:46:05.763Z,13.63
2023-03-22T08:48:41.818Z,13.71
2023-03-22T08:51:21.486Z,13.58
2023-03-22T08:54:09.261Z,13.65
2023-03-22T08:57:22.078Z,13.75
2023-03-22T09:00:47.393Z,13.98
2023-03-22T09:03:28.255Z,13.82
2023-03-22T09:06:01.119Z,13.72
2023-03-22T09:08:36.445Z,13.96
2023-03-22T09:11:15.645Z,14.01
2023-03-22T09:13:52.132Z,13.93
2023-03-22T09:16:25.420Z,13.81
2023-03-22T09:18:58.894Z,13.74
2023-03-22T09:21:32.496Z,13.71
2023-03-22T09:24:13.426Z,13.76
2023-03-22T09:26:49.519Z,14.03
2023-03-22T09:29:23.439Z,14.05
2023-03-22T09:31:56.562Z,14.23
2023-03-22T09:34:33.494Z,14.21
2023-03-22T09:37:06.687Z,14.41
2023-03-22T09:39:47.416Z,14.63
2023-03-22T09:42:32.958Z,14.61
2023-03-22T09:45:13.620Z,14.51
2023-03-22T09:47:50.573Z,14.58
2023-03-22T09:50:26.176Z,14.60
2023-03-22T09:53:00.098Z,14.61
2023-03-22T09:55:39.156Z,14.73
2023-03-22T09:58:25.223Z,14.81
2023-03-22T10:01:02.366Z,14.90
2023-03-22T10:04:03.615Z,14.97
2023-03-22T10:06:36.812Z,14.95
2023-03-22T10:09:16.095Z,14.94
2023-03-22T10:11:53.061Z,15.02
2023-03-22T10:14:32.077Z,14.92
2023-03-22T10:17:09.900Z,14.94
2023-03-22T10:19:50.364Z,14.85
2023-03-22T10:22:29.848Z,14.89
2023-03-22T10:25:04.192Z,15.07
2023-03-22T10:27:37.416Z,15.03
2023-03-22T10:30:21.057Z,14.90
2023-03-22T10:33:01.170Z,15.02
2023-03-22T10:35:34.303Z,15.03
2023-03-22T10:38:10.907Z,14.89
2023-03-22T10:40:44.655Z,14.97
2023-03-22T10:43:22.551Z,15.12
2023-03-22T10:45:56.879Z,14.99
2023-03-22T10:48:33.159Z,15.06
2023-03-22T10:51:07.937Z,15.28
2023-03-22T10:53:45.754Z,15.21
2023-03-22T10:56:21.071Z,15.11
2023-03-22T10:58:56.021Z,15.17
2023-03-22T11:01:32.008Z,15.05
2023-03-22T11:04:10.768Z,15.24
2023-03-22T11:06:54.752Z,15.17
2023-03-22T11:09:29.256Z,15.26
2023-03-22T11:12:03.895Z,15.35
2023-03-22T11:14:38.771Z,15.49
2023-03-22T11:17:12.679Z,15.56
2023-03-22T11:19:54.004Z,15.67
2023-03-22T11:22:33.418Z,15.66
2023-03-22T11:25:16.072Z,15.70
2023-03-22T11:27:56.322Z,15.89
2023-03-22T11:30:30.822Z,15.93
2023-03-22T11:33:19.772Z,16.11
2023-03-22T11:35:58.340Z,16.12
2023-03-22T11:38:37.263Z,16.17
2023-03-22T11:41:15.521Z,16.24
2023-03-22T11:43:53.952Z,16.36
2023-03-22T11:46:27.673Z,16.56
2023-03-22T11:49:03.892Z,16.54
2023-03-22T12:00:57.867Z,17.14
2023-03-22T12:03:57.431Z,17.34
2023-03-22T12:06:33.412Z,17.71
2023-03-22T12:09:12.061Z,17.89
2023-03-22T12:11:48.733Z,17.92
2023-03-22T12:14:27.214Z,17.74
2023-03-22T12:17:03.707Z,17.76
2023-03-22T12:19:50.840Z,17.71
2023-03-22T12:22:29.341Z,17.52
2023-03-22T12:25:03.734Z,17.38
2023-03-22T12:27:41.066Z,17.25
2023-03-22T12:30:19.297Z,17.26
2023-03-22T12:32:55.458Z,17.12
2023-03-22T12:35:32.912Z,17.12
2023-03-22T12:38:23.836Z,17.12
2023-03-22T12:40:58.116Z,17.08
2023-03-22T12:43:43.905Z,16.98
2023-03-22T12:46:19.610Z,16.90
2023-03-22T12:48:55.822Z,16.94
2023-03-22T12:51:28.611Z,16.92
2023-03-22T12:54:03.576Z,16.95
2023-03-22T12:56:41.340Z,16.84
2023-03-22T12:59:21.506Z,16.80
2023-03-22T13:01:59.762Z,16.80
2023-03-22T13:04:53.455Z,16.84
2023-03-22T13:07:41.128Z,16.91
2023-03-22T13:10:50.201Z,16.87
2023-03-22T13:13:41.399Z,16.97
2023-03-22T13:16:24.729Z,17.05
2023-03-22T13:19:04.487Z,17.11
2023-03-22T13:21:41.266Z,17.22
2023-03-22T13:24:26.514Z,17.25
2023-03-22T13:27:00.279Z,17.32
2023-03-22T13:29:42.036Z,17.38
2023-03-22T13:32:33.469Z,17.42
2023-03-22T13:35:21.992Z,17.49
2023-03-22T13:37:55.660Z,17.57
2023-03-22T13:40:37.923Z,17.69
2023-03-22T13:43:27.153Z,17.77
2023-03-22T13:46:28.722Z,17.95
2023-03-22T13:49:26.654Z,18.10
2023-03-22T13:52:02.072Z,18.30
2023-03-22T13:54:42.457Z,18.45
2023-03-22T13:57:57.048Z,18.52
2023-03-22T14:00:48.178Z,18.44
2023-03-22T14:03:32.947Z,18.54
2023-03-22T14:06:16.115Z,18.59
2023-03-22T14:08:52.655Z,18.54
2023-03-22T14:11:30.566Z,18.48
2023-03-22T14:14:09.016Z,18.38
2023-03-22T14:16:46.674Z,18.25
2023-03-22T14:19:25.071Z,18.18
